Time;durP1;ratioP1;P1;durP2;ratioP2;P2;SDS_P1;SDS_P2;PMS_P1;PMS_P2;Temp;Humidity;BMP_temperature;BMP_pressure;BME280_temperature;BME280_humidity;BME280_pressure;Samples;Min_cycle;Max_cycle;Signal;HPM_P1;HPM_P2
2022/04/20 00:00:51;;;;;;;3.30;1.83;;;8.90;99.90;;;;;;5053714;28;20179;-48
2022/04/20 00:03:17;;;;;;;2.63;1.60;;;8.80;99.90;;;;;;5053379;28;20177;-48
2022/04/20 00:05:42;;;;;;;1.73;1.63;;;8.90;99.90;;;;;;5053289;28;20205;-48
2022/04/20 00:08:08;;;;;;;4.13;1.50;;;8.80;99.90;;;;;;5053548;28;20186;-48
2022/04/20 00:10:34;;;;;;;3.50;2.33;;;8.80;99.90;;;;;;5053322;28;20186;-46
2022/04/20 00:12:59;;;;;;;2.47;1.63;;;8.80;99.90;;;;;;5053311;28;20598;-47
2022/04/20 00:15:25;;;;;;;4.83;1.87;;;8.80;99.90;;;;;;5053190;28;20665;-46
2022/04/20 00:17:51;;;;;;;2.97;1.67;;;8.80;99.90;;;;;;5053177;28;20219;-48
2022/04/20 00:20:17;;;;;;;6.20;1.73;;;8.70;99.90;;;;;;5053190;28;20669;-48
2022/04/20 00:22:43;;;;;;;3.23;1.97;;;8.70;99.90;;;;;;5053432;28;20181;-47
2022/04/20 00:25:10;;;;;;;3.47;1.47;;;8.70;99.90;;;;;;5053405;28;20182;-47
2022/04/20 00:27:37;;;;;;;2.57;1.67;;;8.70;99.90;;;;;;5053123;28;20576;-46
2022/04/20 00:30:08;;;;;;;1.80;1.50;;;8.70;99.90;;;;;;5053132;28;20287;-48
2022/04/20 00:32:34;;;;;;;2.43;1.63;;;8.60;99.90;;;;;;5053388;28;20190;-47
2022/04/20 00:35:00;;;;;;;3.00;1.60;;;8.60;99.90;;;;;;5053098;28;20187;-48
2022/04/20 00:37:27;;;;;;;2.00;1.70;;;8.60;99.90;;;;;;5053226;28;20677;-48
2022/04/20 00:39:52;;;;;;;1.70;1.60;;;8.50;99.90;;;;;;5057065;28;20212;-47
2022/04/20 00:42:22;;;;;;;4.00;1.87;;;8.40;99.90;;;;;;5057027;28;20208;-47
2022/04/20 00:44:50;;;;;;;1.63;1.40;;;8.40;99.90;;;;;;5057581;28;20225;-47
2022/04/20 00:47:17;;;;;;;4.43;1.67;;;8.40;99.90;;;;;;5057134;28;20209;-47
2022/04/20 00:49:45;;;;;;;2.63;1.63;;;8.30;99.90;;;;;;5056933;28;20188;-48
2022/04/20 00:52:11;;;;;;;2.70;1.90;;;8.30;99.90;;;;;;5057442;28;20203;-48
2022/04/20 00:54:36;;;;;;;3.60;1.70;;;8.30;99.90;;;;;;5056777;28;20688;-46
2022/04/20 00:57:02;;;;;;;2.03;1.80;;;8.30;99.90;;;;;;5056693;28;20224;-48
2022/04/20 00:59:30;;;;;;;3.13;1.60;;;8.30;99.90;;;;;;5056789;28;20513;-47
2022/04/20 01:01:56;;;;;;;5.07;1.93;;;8.30;99.90;;;;;;5055390;28;20172;-48
2022/04/20 01:04:21;;;;;;;7.13;2.20;;;8.30;99.90;;;;;;5056719;28;20524;-46
2022/04/20 01:06:50;;;;;;;3.47;2.20;;;8.30;99.90;;;;;;5056464;28;20208;-47
2022/04/20 01:09:16;;;;;;;3.37;1.87;;;8.30;99.90;;;;;;5056596;28;20184;-47
2022/04/20 01:11:42;;;;;;;1.97;1.43;;;8.30;99.90;;;;;;5056786;28;20686;-46
2022/04/20 01:14:08;;;;;;;2.93;1.90;;;8.30;99.90;;;;;;5056708;28;20717;-47
2022/04/20 01:16:34;;;;;;;4.53;2.00;;;8.30;99.90;;;;;;5056124;28;20692;-47
2022/04/20 01:19:01;;;;;;;5.10;1.80;;;8.30;99.90;;;;;;5056385;28;20188;-48
2022/04/20 01:21:27;;;;;;;1.87;1.70;;;8.30;99.90;;;;;;5056371;28;20523;-47
2022/04/20 01:23:53;;;;;;;4.57;1.90;;;8.30;99.90;;;;;;5056275;28;20223;-41
2022/04/20 01:26:19;;;;;;;2.40;1.80;;;8.20;99.90;;;;;;5056694;28;20231;-41
2022/04/20 01:28:46;;;;;;;2.03;1.60;;;8.20;99.90;;;;;;5056383;28;20192;-43
2022/04/20 01:31:16;;;;;;;3.40;1.80;;;8.20;99.90;;;;;;5056382;28;20298;-41
2022/04/20 01:33:43;;;;;;;2.27;1.90;;;8.20;99.90;;;;;;5056078;28;20181;-40
2022/04/20 01:36:09;;;;;;;2.80;1.90;;;8.20;99.90;;;;;;5056317;28;20572;-44
2022/04/20 01:38:39;;;;;;;4.33;1.77;;;8.30;99.90;;;;;;5056215;28;20180;-40
2022/04/20 01:41:05;;;;;;;4.20;1.70;;;8.30;99.90;;;;;;5055989;28;20263;-42
2022/04/20 01:43:31;;;;;;;2.73;1.70;;;8.40;99.90;;;;;;5055868;28;20180;-41
2022/04/20 01:45:56;;;;;;;2.10;1.67;;;8.40;99.90;;;;;;5055820;28;20199;-42
2022/04/20 01:48:22;;;;;;;3.27;1.93;;;8.40;99.90;;;;;;5055381;28;20522;-41
2022/04/20 01:53:31;;;;;;;3.27;1.80;;;8.40;99.90;;;;;;5055743;28;20167;-43
2022/04/20 01:56:00;;;;;;;5.57;2.40;;;8.40;99.90;;;;;;5055743;28;20184;-40
2022/04/20 01:58:26;;;;;;;7.97;1.97;;;8.30;99.90;;;;;;5055588;28;20587;-44
2022/04/20 02:00:51;;;;;;;5.33;2.07;;;8.30;99.90;;;;;;5055815;28;20184;-43
2022/04/20 02:03:17;;;;;;;5.53;2.27;;;8.30;99.90;;;;;;5055850;28;20156;-43
2022/04/20 02:05:42;;;;;;;13.13;3.03;;;8.30;99.90;;;;;;5054229;28;20180;-44
2022/04/20 02:08:08;;;;;;;11.17;3.30;;;8.20;99.90;;;;;;5055367;28;20551;-42
2022/04/20 02:10:34;;;;;;;12.00;2.13;;;8.20;99.90;;;;;;5055386;28;20659;-42
2022/04/20 02:13:00;;;;;;;12.27;3.80;;;8.20;99.90;;;;;;5056022;28;20184;-40
2022/04/20 02:15:25;;;;;;;9.97;2.47;;;8.20;99.90;;;;;;5055095;28;20237;-39
2022/04/20 02:17:51;;;;;;;8.83;2.80;;;8.20;99.90;;;;;;5055460;28;20303;-42
2022/04/20 02:20:17;;;;;;;9.30;2.10;;;8.20;99.90;;;;;;5055978;28;20263;-43
2022/04/20 02:22:42;;;;;;;7.10;2.47;;;8.10;99.90;;;;;;5055453;28;20239;-43
2022/04/20 02:25:08;;;;;;;13.43;2.13;;;8.10;99.90;;;;;;5055098;28;20208;-42
2022/04/20 02:27:34;;;;;;;9.37;2.33;;;8.00;99.90;;;;;;5055105;28;20204;-40
2022/04/20 02:29:59;;;;;;;6.63;2.10;;;8.00;99.90;;;;;;5053776;28;20184;-42
2022/04/20 02:32:25;;;;;;;6.93;2.30;;;7.90;99.90;;;;;;5055092;28;20184;-42
2022/04/20 02:34:51;;;;;;;11.53;2.10;;;7.90;99.90;;;;;;5054974;28;20192;-41
2022/04/20 02:37:16;;;;;;;7.23;2.23;;;7.80;99.90;;;;;;5054811;28;20211;-41
2022/04/20 02:39:44;;;;;;;10.10;2.20;;;7.70;99.90;;;;;;5053628;28;20696;-42
2022/04/20 02:42:10;;;;;;;3.87;2.30;;;7.70;99.90;;;;;;5055584;28;20181;-42
2022/04/20 02:44:36;;;;;;;5.97;2.10;;;7.60;99.90;;;;;;5055021;28;20233;-43
2022/04/20 02:47:03;;;;;;;3.97;2.30;;;7.60;99.90;;;;;;5054930;28;20214;-43
2022/04/20 02:49:29;;;;;;;6.63;2.00;;;7.50;99.90;;;;;;5054659;28;20708;-44
2022/04/20 02:51:55;;;;;;;4.70;1.80;;;7.40;99.90;;;;;;5054586;28;20267;-42
2022/04/20 02:54:20;;;;;;;6.73;2.40;;;7.40;99.90;;;;;;5054522;28;20279;-43
2022/04/20 02:56:46;;;;;;;4.87;1.80;;;7.40;99.90;;;;;;5054342;28;20243;-42
2022/04/20 02:59:11;;;;;;;3.13;2.07;;;7.30;99.90;;;;;;5054797;28;20518;-40
2022/04/20 03:01:37;;;;;;;8.23;2.43;;;7.30;99.90;;;;;;5053802;28;20184;-42
2022/04/20 03:04:03;;;;;;;9.83;2.23;;;7.20;99.90;;;;;;5054630;28;20180;-42
2022/04/20 03:06:28;;;;;;;3.17;2.10;;;7.10;99.90;;;;;;5054281;28;20250;-43
2022/04/20 03:08:54;;;;;;;7.60;2.40;;;7.10;99.90;;;;;;5054246;28;20599;-42
2022/04/20 03:11:20;;;;;;;8.83;2.87;;;7.10;99.90;;;;;;5054504;28;20183;-43
2022/04/20 03:13:47;;;;;;;7.10;2.43;;;7.10;99.90;;;;;;5054231;28;20206;-42
2022/04/20 03:16:12;;;;;;;6.40;2.33;;;7.10;99.90;;;;;;5054275;28;20691;-43
2022/04/20 03:18:38;;;;;;;6.10;2.30;;;7.10;99.90;;;;;;5052860;28;20191;-44
2022/04/20 03:21:03;;;;;;;8.27;3.50;;;7.10;99.90;;;;;;5054022;28;20194;-42
2022/04/20 03:23:30;;;;;;;6.10;2.87;;;7.10;99.90;;;;;;5054075;28;20274;-41
2022/04/20 03:25:56;;;;;;;8.17;2.57;;;7.10;99.90;;;;;;5053830;28;20185;-42
2022/04/20 03:28:22;;;;;;;7.37;2.73;;;7.10;99.90;;;;;;5053885;28;20183;-39
2022/04/20 03:30:47;;;;;;;5.47;2.43;;;7.20;99.90;;;;;;5052567;28;20180;-41
2022/04/20 03:33:14;;;;;;;4.97;2.60;;;7.10;99.90;;;;;;5053840;28;20203;-41
2022/04/20 03:35:40;;;;;;;8.77;2.67;;;7.10;99.90;;;;;;5053979;28;20194;-39
2022/04/20 03:38:07;;;;;;;4.43;2.30;;;7.10;99.90;;;;;;5053999;28;20211;-42
2022/04/20 03:40:32;;;;;;;12.00;2.83;;;7.10;99.90;;;;;;5054047;28;20176;-41
2022/04/20 03:42:58;;;;;;;16.57;3.17;;;7.10;99.90;;;;;;5053727;28;20613;-44
2022/04/20 03:45:23;;;;;;;7.40;2.73;;;7.10;99.90;;;;;;5054168;28;20226;-45
2022/04/20 03:47:49;;;;;;;13.10;2.73;;;7.00;99.90;;;;;;5053556;28;20204;-45
2022/04/20 03:50:14;;;;;;;4.50;2.40;;;7.10;99.90;;;;;;5054112;28;20192;-46
2022/04/20 03:52:40;;;;;;;8.77;2.73;;;7.00;99.90;;;;;;5052737;28;20272;-45
2022/04/20 03:55:06;;;;;;;10.43;2.73;;;7.00;99.90;;;;;;5053490;28;20184;-45
2022/04/20 03:57:32;;;;;;;5.73;2.53;;;7.00;99.90;;;;;;5052116;28;20262;-44
2022/04/20 03:59:57;;;;;;;14.23;3.13;;;6.90;99.90;;;;;;5054332;28;20188;-46
2022/04/20 04:02:23;;;;;;;10.10;2.70;;;6.90;99.90;;;;;;5053411;28;20274;-46
2022/04/20 04:04:48;;;;;;;5.63;2.30;;;6.90;99.90;;;;;;5053940;28;20176;-46
2022/04/20 04:07:14;;;;;;;7.23;2.40;;;6.80;99.90;;;;;;5053546;28;20689;-45
2022/04/20 04:09:40;;;;;;;11.53;3.50;;;6.70;99.90;;;;;;5053272;28;20186;-46
2022/04/20 04:12:09;;;;;;;7.70;2.67;;;6.70;99.90;;;;;;5053378;28;20544;-45
2022/04/20 04:14:39;;;;;;;8.50;3.30;;;6.60;99.90;;;;;;5053565;28;20273;-45
2022/04/20 04:17:05;;;;;;;7.43;3.07;;;6.60;99.90;;;;;;5052954;28;20719;-45
2022/04/20 04:19:31;;;;;;;12.40;2.23;;;6.40;99.90;;;;;;5053503;28;20186;-44
2022/04/20 04:21:56;;;;;;;9.17;3.13;;;6.30;99.90;;;;;;5053255;28;20176;-44
2022/04/20 04:24:34;;;;;;;6.43;2.90;;;6.20;99.90;;;;;;5053269;28;20202;-45
2022/04/20 04:27:00;;;;;;;7.17;3.33;;;6.20;99.90;;;;;;5053352;28;20208;-44
2022/04/20 04:29:27;;;;;;;6.63;2.80;;;6.10;99.90;;;;;;5053170;28;20543;-45
2022/04/20 04:31:53;;;;;;;5.37;3.17;;;6.00;99.90;;;;;;5053345;28;20320;-43
2022/04/20 04:34:18;;;;;;;11.57;3.83;;;6.00;99.90;;;;;;5053137;28;20178;-44
2022/04/20 04:36:44;;;;;;;11.13;5.30;;;5.90;99.90;;;;;;5052947;28;20208;-44
2022/04/20 04:39:10;;;;;;;6.53;4.47;;;5.80;99.90;;;;;;5052140;28;20240;-46
2022/04/20 04:41:35;;;;;;;11.40;4.53;;;5.80;99.90;;;;;;5051767;28;20207;-45
2022/04/20 04:44:01;;;;;;;11.23;6.27;;;5.80;99.90;;;;;;5053287;28;20647;-45
2022/04/20 04:49:10;;;;;;;11.23;3.70;;;5.70;99.90;;;;;;5052981;28;20206;-45
2022/04/20 04:51:36;;;;;;;7.13;3.40;;;5.60;99.90;;;;;;5052897;28;20698;-46
2022/04/20 04:54:01;;;;;;;13.87;3.17;;;5.70;99.90;;;;;;5053063;28;20655;-42
2022/04/20 04:56:27;;;;;;;6.90;3.40;;;5.60;99.90;;;;;;5052787;28;20200;-46
2022/04/20 04:58:53;;;;;;;8.50;2.60;;;5.50;99.90;;;;;;5052848;28;20178;-44
2022/04/20 05:01:19;;;;;;;7.43;3.17;;;5.50;99.90;;;;;;5052822;28;20172;-46
2022/04/20 05:03:44;;;;;;;7.33;3.07;;;5.50;99.90;;;;;;5052941;28;20526;-44
2022/04/20 05:06:10;;;;;;;8.50;3.70;;;5.40;99.90;;;;;;5052981;28;20711;-45
2022/04/20 05:08:36;;;;;;;9.80;3.50;;;5.40;99.90;;;;;;5052722;28;20319;-46
2022/04/20 05:11:01;;;;;;;7.27;3.20;;;5.50;99.90;;;;;;5052992;28;20184;-47
2022/04/20 05:13:27;;;;;;;10.80;3.60;;;5.50;99.90;;;;;;5052719;28;20182;-46
2022/04/20 05:15:52;;;;;;;8.77;3.37;;;5.40;99.90;;;;;;5052691;28;20660;-45
2022/04/20 05:18:18;;;;;;;10.57;3.20;;;5.40;99.90;;;;;;5052656;28;20164;-45
2022/04/20 05:20:44;;;;;;;12.50;3.33;;;5.40;99.90;;;;;;5053002;28;20201;-46
2022/04/20 05:23:09;;;;;;;13.37;3.20;;;5.50;99.90;;;;;;5052678;28;20714;-46
2022/04/20 05:25:35;;;;;;;4.90;2.97;;;5.40;99.90;;;;;;5056141;28;20213;-45
2022/04/20 05:28:01;;;;;;;7.30;3.27;;;5.50;99.90;;;;;;5056507;28;20207;-44
2022/04/20 05:30:27;;;;;;;10.30;3.13;;;5.50;99.90;;;;;;5056711;28;20187;-44
2022/04/20 05:32:52;;;;;;;4.20;2.67;;;5.50;99.90;;;;;;5056517;28;20723;-44
2022/04/20 05:35:18;;;;;;;12.27;3.27;;;5.60;99.90;;;;;;5056175;28;20186;-44
2022/04/20 05:43:12;;;;;;;8.83;3.50;;;6.00;99.90;;;;;;5055969;28;20189;-44
2022/04/20 05:45:38;;;;;;;8.63;3.47;;;6.20;99.90;;;;;;5055878;28;20178;-44
2022/04/20 05:48:04;;;;;;;10.37;3.20;;;6.40;99.90;;;;;;5055762;28;20199;-45
2022/04/20 05:50:29;;;;;;;9.60;3.50;;;6.50;99.90;;;;;;5056074;28;20232;-46
2022/04/20 05:52:55;;;;;;;4.43;2.70;;;6.70;99.90;;;;;;5055701;28;20204;-45
2022/04/20 05:55:21;;;;;;;12.67;3.07;;;6.80;99.90;;;;;;5055906;28;20181;-45
2022/04/20 05:57:49;;;;;;;8.37;2.97;;;6.90;99.90;;;;;;5055522;28;20287;-45
2022/04/20 06:00:15;;;;;;;10.87;3.77;;;7.10;99.90;;;;;;5055630;28;20192;-45
2022/04/20 06:02:43;;;;;;;8.73;3.23;;;7.10;99.90;;;;;;5054294;28;20183;-44
2022/04/20 06:05:10;;;;;;;12.40;3.57;;;7.30;99.90;;;;;;5055547;28;20553;-45
2022/04/20 06:07:35;;;;;;;20.20;3.30;;;7.40;99.90;;;;;;5054144;28;20214;-45
2022/04/20 06:10:01;;;;;;;6.03;2.37;;;7.50;99.90;;;;;;5055417;28;20178;-45
2022/04/20 06:12:27;;;;;;;11.13;3.70;;;7.60;99.90;;;;;;5055638;28;20192;-45
2022/04/20 06:14:52;;;;;;;12.67;3.53;;;7.70;99.90;;;;;;5055568;28;20190;-45
2022/04/20 06:17:18;;;;;;;15.43;3.93;;;7.90;99.90;;;;;;5053849;28;20239;-44
2022/04/20 06:19:44;;;;;;;6.43;2.80;;;8.00;99.90;;;;;;5055251;28;20178;-45
2022/04/20 06:22:09;;;;;;;13.57;2.97;;;8.10;99.90;;;;;;5055510;28;20232;-44
2022/04/20 06:24:35;;;;;;;12.63;3.60;;;8.50;99.90;;;;;;5055106;28;20179;-43
2022/04/20 06:27:02;;;;;;;11.73;3.47;;;8.80;99.90;;;;;;5055341;28;20207;-44
2022/04/20 06:29:27;;;;;;;10.93;3.23;;;9.00;99.90;;;;;;5055072;28;20218;-45
2022/04/20 06:31:54;;;;;;;10.03;2.70;;;9.20;99.90;;;;;;5055308;28;20266;-44
2022/04/20 06:34:20;;;;;;;9.13;2.70;;;9.50;99.90;;;;;;5055250;28;20191;-46
2022/04/20 06:36:45;;;;;;;7.83;2.93;;;9.80;99.90;;;;;;5054771;28;20208;-46
2022/04/20 06:39:11;;;;;;;7.23;2.50;;;10.10;99.90;;;;;;5055165;28;20259;-43
2022/04/20 06:41:37;;;;;;;4.47;2.60;;;10.30;99.90;;;;;;5054806;28;20188;-44
2022/04/20 06:44:02;;;;;;;4.53;2.30;;;10.50;99.90;;;;;;5054753;28;20184;-46
2022/04/20 06:46:28;;;;;;;5.60;2.33;;;10.60;99.90;;;;;;5054937;28;20200;-45
2022/04/20 06:48:55;;;;;;;5.43;2.60;;;10.80;99.90;;;;;;5054995;28;20272;-46
2022/04/20 06:51:21;;;;;;;3.80;2.37;;;11.00;99.90;;;;;;5054924;28;20179;-45
2022/04/20 06:59:15;;;;;;;3.93;2.30;;;11.50;99.90;;;;;;5055044;28;20176;-47
2022/04/20 07:01:40;;;;;;;2.57;2.07;;;11.70;99.90;;;;;;5054544;28;20652;-46
2022/04/20 07:04:06;;;;;;;5.90;2.47;;;11.70;99.90;;;;;;5054562;28;20649;-45
2022/04/20 07:06:32;;;;;;;5.47;2.63;;;12.00;99.90;;;;;;5054519;28;20254;-45
2022/04/20 07:08:58;;;;;;;4.67;2.60;;;12.20;99.90;;;;;;5054564;28;20190;-44
2022/04/20 07:11:27;;;;;;;4.07;2.63;;;12.40;99.90;;;;;;5054514;28;20188;-46
2022/04/20 07:13:52;;;;;;;5.50;2.70;;;12.50;99.90;;;;;;5086547;28;20190;-46
2022/04/20 07:16:18;;;;;;;4.37;2.30;;;12.60;99.90;;;;;;5053846;28;20587;-46
2022/04/20 07:18:44;;;;;;;7.50;2.97;;;12.70;99.90;;;;;;5054316;28;20672;-46
2022/04/20 07:21:10;;;;;;;5.33;2.83;;;12.80;99.90;;;;;;5054233;28;20174;-46
2022/04/20 07:23:36;;;;;;;4.60;2.63;;;12.90;99.90;;;;;;5054041;28;20552;-46
2022/04/20 07:26:02;;;;;;;4.53;3.00;;;13.00;99.90;;;;;;5054229;28;20210;-46
2022/04/20 07:28:28;;;;;;;7.43;2.30;;;13.10;99.90;;;;;;5053490;28;20176;-47
2022/04/20 07:30:54;;;;;;;6.67;2.60;;;13.40;99.90;;;;;;5054240;28;20221;-46
2022/04/20 07:33:19;;;;;;;4.20;2.67;;;13.40;99.90;;;;;;5053865;28;20257;-47
2022/04/20 07:35:46;;;;;;;3.87;2.73;;;13.60;99.90;;;;;;5053801;28;20175;-46
2022/04/20 07:38:12;;;;;;;3.63;2.53;;;13.70;99.90;;;;;;5054038;28;20202;-45
2022/04/20 07:40:38;;;;;;;6.17;2.67;;;13.80;99.90;;;;;;5053158;28;20515;-46
2022/04/20 07:43:04;;;;;;;7.53;2.83;;;14.00;99.90;;;;;;5054299;28;20179;-48
2022/04/20 07:45:30;;;;;;;5.50;2.60;;;14.10;99.90;;;;;;5053977;28;20714;-47
2022/04/20 07:47:57;;;;;;;2.37;2.03;;;14.20;99.90;;;;;;5053231;28;20196;-47
2022/04/20 07:50:24;;;;;;;5.80;2.80;;;14.30;99.90;;;;;;5052406;28;20184;-47
2022/04/20 07:53:01;;;;;;;4.33;2.70;;;14.30;99.90;;;;;;5052664;28;20191;-47
2022/04/20 07:55:30;;;;;;;7.17;2.40;;;14.30;99.90;;;;;;5053493;28;20801;-47
2022/04/20 07:57:58;;;;;;;6.87;2.23;;;14.30;99.90;;;;;;5053329;28;20214;-46
2022/04/20 08:00:24;;;;;;;3.67;2.50;;;14.30;99.90;;;;;;5053517;28;20179;-47
2022/04/20 08:02:50;;;;;;;2.97;2.10;;;14.30;99.90;;;;;;5052176;28;20172;-47
2022/04/20 08:05:19;;;;;;;4.97;2.40;;;14.30;99.90;;;;;;5053707;28;20667;-46
2022/04/20 08:07:45;;;;;;;5.43;2.20;;;14.40;99.90;;;;;;5053239;28;20200;-47
2022/04/20 08:10:12;;;;;;;3.87;2.77;;;14.50;99.90;;;;;;5053417;28;20238;-47
2022/04/20 08:12:40;;;;;;;7.80;2.73;;;14.60;99.90;;;;;;5053941;28;20562;-47
2022/04/20 08:15:07;;;;;;;5.17;2.57;;;14.70;99.90;;;;;;5053317;28;20179;-45
2022/04/20 08:17:33;;;;;;;5.73;2.67;;;14.80;99.90;;;;;;5053010;28;20234;-47
2022/04/20 08:19:59;;;;;;;5.13;2.80;;;15.00;99.90;;;;;;5053221;28;20243;-46
2022/04/20 08:22:26;;;;;;;6.57;2.63;;;15.00;99.90;;;;;;5053433;28;20177;-48
2022/04/20 08:24:53;;;;;;;2.20;1.87;;;15.10;99.90;;;;;;5053217;28;20168;-47
2022/04/20 08:27:20;;;;;;;6.27;3.10;;;15.10;99.90;;;;;;5053318;28;20200;-47
2022/04/20 08:29:47;;;;;;;6.07;2.67;;;15.20;99.90;;;;;;5053415;28;20184;-47
2022/04/20 08:32:15;;;;;;;4.03;2.33;;;15.20;99.90;;;;;;5053074;28;20222;-47
2022/04/20 08:34:44;;;;;;;6.77;2.30;;;15.20;99.90;;;;;;5053026;28;20246;-47
2022/04/20 08:37:11;;;;;;;6.40;2.10;;;15.30;99.90;;;;;;5052895;28;20212;-47
2022/04/20 08:39:38;;;;;;;6.17;2.40;;;15.30;99.90;;;;;;5053137;28;20176;-45
2022/04/20 08:42:06;;;;;;;12.57;2.63;;;15.40;99.90;;;;;;5053266;28;20218;-47
2022/04/20 08:44:35;;;;;;;5.23;2.43;;;15.40;99.90;;;;;;5053332;28;20180;-47
2022/04/20 08:47:02;;;;;;;5.83;2.00;;;15.40;99.90;;;;;;5053777;28;20231;-48
2022/04/20 08:49:28;;;;;;;3.60;2.60;;;15.50;99.90;;;;;;5053006;28;20267;-50
2022/04/20 08:54:39;;;;;;;12.67;2.77;;;15.80;99.90;;;;;;5053293;28;20172;-48
2022/04/20 08:57:18;;;;;;;5.63;2.10;;;15.90;99.90;;;;;;5053067;28;20269;-48
2022/04/20 08:59:48;;;;;;;6.73;2.20;;;15.90;99.90;;;;;;5055935;28;20539;-49
2022/04/20 09:02:16;;;;;;;8.97;2.53;;;16.00;99.90;;;;;;5057299;28;20203;-48
2022/04/20 09:04:42;;;;;;;4.80;2.47;;;16.10;99.90;;;;;;5056970;28;20263;-48
2022/04/20 09:07:09;;;;;;;6.13;2.80;;;16.10;99.90;;;;;;5057019;28;20224;-47
2022/04/20 09:09:35;;;;;;;2.97;2.00;;;16.20;99.90;;;;;;5056704;28;20188;-48
2022/04/20 09:12:06;;;;;;;3.20;1.80;;;16.30;99.00;;;;;;5056633;28;20259;-48
2022/04/20 09:14:32;;;;;;;5.33;1.60;;;16.30;99.00;;;;;;5056923;28;20559;-47
2022/04/20 09:17:01;;;;;;;3.10;1.90;;;16.30;97.30;;;;;;5056194;28;20222;-48
2022/04/20 09:19:28;;;;;;;9.77;2.27;;;16.40;97.50;;;;;;5056423;28;20644;-48
2022/04/20 09:21:55;;;;;;;5.23;2.07;;;16.40;98.00;;;;;;5056368;28;20176;-47
2022/04/20 09:24:21;;;;;;;7.60;2.40;;;16.40;97.80;;;;;;5056584;28;20184;-48
2022/04/20 09:26:55;;;;;;;6.10;2.00;;;16.50;97.50;;;;;;5056511;28;20330;-49
2022/04/20 09:29:21;;;;;;;4.00;1.97;;;16.60;98.70;;;;;;5056517;28;20211;-49
2022/04/20 09:31:49;;;;;;;5.70;2.00;;;16.40;94.40;;;;;;5056153;28;20214;-49
2022/04/20 09:34:53;;;;;;;5.07;2.00;;;16.20;96.40;;;;;;5056372;28;20544;-48
2022/04/20 09:37:21;;;;;;;6.03;1.90;;;16.40;96.90;;;;;;5054692;28;20215;-48
2022/04/20 09:39:48;;;;;;;2.07;1.77;;;16.40;97.40;;;;;;5056218;28;20187;-47
2022/04/20 09:42:14;;;;;;;3.80;2.57;;;16.40;95.10;;;;;;5056222;28;20223;-48
2022/04/20 09:45:04;;;;;;;3.37;1.90;;;16.30;95.00;;;;;;5056211;28;20184;-48
2022/04/20 09:50:27;;;;;;;2.73;1.70;;;16.00;93.50;;;;;;5056367;28;20168;-47
2022/04/20 09:52:55;;;;;;;3.27;1.90;;;16.10;96.20;;;;;;5054510;28;20183;-49
2022/04/20 09:55:30;;;;;;;3.60;1.83;;;16.40;97.10;;;;;;5056036;28;20554;-48
2022/04/20 09:58:10;;;;;;;3.00;1.90;;;16.70;97.50;;;;;;5055786;28;20285;-49
2022/04/20 10:00:44;;;;;;;3.17;1.93;;;16.90;98.10;;;;;;5055624;28;20663;-50
2022/04/20 10:03:10;;;;;;;6.53;1.97;;;17.00;97.80;;;;;;5055808;28;20262;-49
2022/04/20 10:05:37;;;;;;;2.87;1.50;;;17.20;96.90;;;;;;5055556;28;20258;-47
2022/04/20 10:08:03;;;;;;;3.17;1.70;;;17.10;95.10;;;;;;5055707;28;20211;-51
2022/04/20 10:10:33;;;;;;;3.67;1.73;;;17.00;91.30;;;;;;5055353;28;20180;-49
2022/04/20 10:13:00;;;;;;;3.83;1.80;;;16.80;93.50;;;;;;5055426;28;20176;-48
2022/04/20 10:18:20;;;;;;;6.07;1.90;;;16.70;90.30;;;;;;5055385;28;20199;-51
2022/04/20 10:20:50;;;;;;;4.43;2.23;;;16.50;91.90;;;;;;5055341;28;20172;-49
2022/04/20 10:23:21;;;;;;;3.23;1.53;;;16.60;92.20;;;;;;5055510;28;20217;-49
2022/04/20 10:25:49;;;;;;;6.33;2.10;;;16.60;93.60;;;;;;5055072;28;20169;-49
2022/04/20 10:28:39;;;;;;;2.87;1.60;;;16.70;95.00;;;;;;5055125;28;20187;-48
2022/04/20 10:31:14;;;;;;;6.57;2.00;;;17.00;95.50;;;;;;5053836;28;20184;-50
2022/04/20 10:33:41;;;;;;;2.50;1.90;;;17.10;94.20;;;;;;5055240;28;20179;-48
2022/04/20 10:36:11;;;;;;;4.13;1.93;;;17.30;96.10;;;;;;5054811;28;20699;-49
2022/04/20 10:38:38;;;;;;;2.30;1.70;;;17.40;96.70;;;;;;5055211;28;20191;-49
2022/04/20 10:41:18;;;;;;;4.20;1.63;;;17.50;96.90;;;;;;5055075;28;20259;-49
2022/04/20 10:43:45;;;;;;;2.80;1.97;;;17.60;92.30;;;;;;5055148;28;20188;-49
2022/04/20 10:46:19;;;;;;;2.20;1.87;;;17.40;91.90;;;;;;5070260;28;20609;-48
2022/04/20 10:48:58;;;;;;;1.97;1.77;;;17.30;89.60;;;;;;5054729;28;20644;-48
2022/04/20 10:51:35;;;;;;;2.03;1.77;;;17.10;92.00;;;;;;5054998;28;20170;-49
2022/04/20 10:54:26;;;;;;;5.27;1.73;;;17.10;90.30;;;;;;5054759;28;20164;-49
2022/04/20 10:57:05;;;;;;;2.60;2.00;;;17.10;90.90;;;;;;5055033;28;20290;-49
2022/04/20 10:59:32;;;;;;;3.07;1.50;;;16.90;89.70;;;;;;5053260;28;20172;-49
2022/04/20 11:02:03;;;;;;;4.73;1.53;;;16.80;88.40;;;;;;5054483;28;20313;-48
2022/04/20 11:04:32;;;;;;;3.13;1.70;;;16.70;90.40;;;;;;5054462;28;20172;-50
2022/04/20 11:07:04;;;;;;;4.30;2.00;;;16.70;91.40;;;;;;5054624;28;20291;-49
2022/04/20 11:09:45;;;;;;;3.67;1.70;;;16.80;91.80;;;;;;5054356;28;20577;-49
2022/04/20 11:21:09;;;;;;;3.50;2.10;;;17.40;94.10;;;;;;5053930;28;20179;-51
2022/04/20 11:23:57;;;;;;;2.23;1.50;;;17.40;91.00;;;;;;5053967;28;20648;-48
2022/04/20 11:26:34;;;;;;;3.00;1.90;;;17.50;91.20;;;;;;5054257;28;20200;-49
2022/04/20 11:29:18;;;;;;;2.43;1.80;;;17.50;90.40;;;;;;5054944;28;20188;-44
2022/04/20 11:31:49;;;;;;;3.67;1.60;;;17.60;91.40;;;;;;5054080;28;20544;-44
2022/04/20 11:34:19;;;;;;;2.03;1.70;;;17.70;94.10;;;;;;5053892;28;20694;-42
2022/04/20 11:36:47;;;;;;;3.23;2.50;;;18.00;96.40;;;;;;5054192;28;20215;-44
2022/04/20 11:39:15;;;;;;;5.90;2.17;;;18.10;91.10;;;;;;5052696;28;20261;-44
2022/04/20 11:41:51;;;;;;;3.03;1.63;;;18.20;93.00;;;;;;5053991;28;20190;-43
2022/04/20 11:44:27;;;;;;;2.63;1.90;;;18.30;94.40;;;;;;5053999;28;20187;-46
2022/04/20 11:47:00;;;;;;;4.37;2.00;;;18.60;90.60;;;;;;5053646;28;20195;-43
2022/04/20 11:49:44;;;;;;;3.90;1.73;;;18.50;88.70;;;;;;5053965;28;20165;-44
2022/04/20 11:52:14;;;;;;;3.80;1.90;;;18.40;91.30;;;;;;5053965;28;20164;-44
2022/04/20 11:54:41;;;;;;;4.13;1.90;;;18.30;88.50;;;;;;5053663;28;20177;-42
2022/04/20 11:57:08;;;;;;;2.67;2.13;;;18.40;89.50;;;;;;5053492;28;20203;-43
2022/04/20 11:59:41;;;;;;;2.23;2.03;;;18.20;88.60;;;;;;5053736;28;20641;-44
2022/04/20 12:02:06;;;;;;;2.77;2.00;;;18.10;90.40;;;;;;5053978;28;20157;-42
2022/04/20 12:04:32;;;;;;;4.07;2.03;;;18.10;90.10;;;;;;5053698;28;20176;-44
2022/04/20 12:07:01;;;;;;;2.33;1.90;;;18.10;90.50;;;;;;5053451;28;20196;-43
2022/04/20 12:09:32;;;;;;;3.77;2.50;;;18.10;89.80;;;;;;5053373;28;20186;-43
2022/04/20 12:12:00;;;;;;;5.40;2.00;;;18.10;89.50;;;;;;5053588;28;20180;-43
2022/04/20 12:14:32;;;;;;;4.00;1.97;;;18.00;87.60;;;;;;5053555;28;20188;-43
2022/04/20 12:17:06;;;;;;;3.03;2.20;;;18.00;87.80;;;;;;5053076;28;20711;-43
2022/04/20 12:19:32;;;;;;;5.13;2.23;;;18.00;90.10;;;;;;5053532;28;20161;-44
2022/04/20 12:22:06;;;;;;;4.97;2.10;;;18.10;90.10;;;;;;5053460;28;20284;-41
2022/04/20 12:24:32;;;;;;;4.23;1.97;;;18.20;89.10;;;;;;5053176;28;20176;-42
2022/04/20 12:26:59;;;;;;;2.50;1.70;;;18.10;87.50;;;;;;5053099;28;20200;-45
2022/04/20 12:29:27;;;;;;;2.63;2.03;;;18.20;89.20;;;;;;5053401;28;20216;-48
2022/04/20 12:31:57;;;;;;;3.53;2.00;;;18.20;89.30;;;;;;5053319;28;20188;-48
2022/04/20 12:34:28;;;;;;;3.57;2.00;;;18.20;87.20;;;;;;5056716;28;20213;-48
2022/04/20 12:37:05;;;;;;;7.43;2.03;;;18.40;92.20;;;;;;5056982;28;20257;-48
2022/04/20 12:39:39;;;;;;;4.77;2.30;;;18.70;91.90;;;;;;5057456;28;20242;-49
2022/04/20 12:42:17;;;;;;;2.70;1.90;;;18.90;85.70;;;;;;5056121;28;20270;-49
2022/04/20 12:44:51;;;;;;;9.77;2.23;;;18.90;86.70;;;;;;5057319;28;20176;-48
2022/04/20 12:47:17;;;;;;;3.90;1.80;;;18.90;86.40;;;;;;5057235;28;20231;-49
2022/04/20 12:49:45;;;;;;;5.47;1.67;;;19.00;89.40;;;;;;5057586;28;20172;-47
2022/04/20 12:52:17;;;;;;;2.50;1.90;;;19.10;88.10;;;;;;5056901;28;20648;-49
2022/04/20 12:55:00;;;;;;;3.33;2.10;;;19.20;91.60;;;;;;5057029;28;20173;-49
2022/04/20 13:03:08;;;;;;;3.70;1.70;;;19.70;91.50;;;;;;5057130;28;20199;-49
2022/04/20 13:05:35;;;;;;;3.07;1.90;;;19.90;93.00;;;;;;5056930;28;20259;-49
2022/04/20 13:08:01;;;;;;;1.70;1.60;;;19.90;85.10;;;;;;5056862;28;20215;-47
2022/04/20 13:10:29;;;;;;;5.20;2.10;;;19.70;83.80;;;;;;5056597;28;20227;-49
2022/04/20 13:12:56;;;;;;;5.67;1.90;;;19.30;83.20;;;;;;5056551;28;20177;-48
2022/04/20 13:15:24;;;;;;;5.13;1.70;;;19.20;82.70;;;;;;5056613;28;20636;-48
2022/04/20 13:17:51;;;;;;;6.87;2.27;;;19.10;85.90;;;;;;5056353;28;20204;-48
2022/04/20 13:20:18;;;;;;;4.50;2.40;;;19.20;89.60;;;;;;5056684;28;20255;-48
2022/04/20 13:22:44;;;;;;;2.03;1.60;;;19.40;91.10;;;;;;5056919;28;20222;-49
2022/04/20 13:27:55;;;;;;;2.93;1.60;;;20.00;93.10;;;;;;5056608;28;20207;-49
2022/04/20 13:30:25;;;;;;;3.20;1.90;;;20.30;94.30;;;;;;5056517;28;20188;-49
2022/04/20 13:32:51;;;;;;;4.37;1.70;;;20.50;86.50;;;;;;5054889;28;20192;-47
2022/04/20 13:35:18;;;;;;;3.53;1.63;;;20.40;84.40;;;;;;5056378;28;20180;-48